Time;durP1;ratioP1;P1;durP2;ratioP2;P2;SDS_P1;SDS_P2;PMS_P1;PMS_P2;Temp;Humidity;BMP_temperature;BMP_pressure;BME280_temperature;BME280_humidity;BME280_pressure;Samples;Min_cycle;Max_cycle;Signal;HPM_P1;HPM_P2
2022/02/14 00:00:29;;;;;;;5.35;2.25;;;10.40;99.90;;;;;;5001389;28;20189;-76
2022/02/14 00:02:55;;;;;;;3.10;2.10;;;10.40;99.90;;;;;;5001129;28;20174;-76
2022/02/14 00:05:20;;;;;;;4.53;2.17;;;10.30;99.90;;;;;;5001680;28;20287;-77
2022/02/14 00:07:47;;;;;;;5.70;2.47;;;10.40;99.90;;;;;;5001335;28;20218;-76
2022/02/14 00:10:12;;;;;;;3.93;2.17;;;10.30;99.90;;;;;;5003037;28;20194;-77
2022/02/14 00:12:41;;;;;;;3.13;2.00;;;10.30;99.90;;;;;;5001469;28;20203;-77
2022/02/14 00:15:09;;;;;;;3.58;2.30;;;10.30;99.90;;;;;;5001073;28;20174;-77
2022/02/14 00:17:35;;;;;;;5.15;2.58;;;10.30;99.90;;;;;;4984251;28;20199;-77
2022/02/14 00:20:01;;;;;;;3.63;2.10;;;10.20;99.90;;;;;;4990970;28;20175;-77
2022/02/14 00:22:26;;;;;;;4.20;2.13;;;10.20;99.90;;;;;;5001406;28;20233;-76
2022/02/14 00:24:53;;;;;;;3.17;1.70;;;10.20;99.90;;;;;;5000971;28;20170;-76
2022/02/14 00:27:19;;;;;;;6.45;3.05;;;10.20;99.90;;;;;;4999104;28;20202;-76
2022/02/14 00:29:45;;;;;;;3.83;2.40;;;10.10;99.90;;;;;;4999991;28;20175;-76
2022/02/14 00:32:11;;;;;;;8.00;2.22;;;10.10;99.90;;;;;;5000802;28;20549;-76
2022/02/14 00:34:37;;;;;;;3.53;2.20;;;10.10;99.90;;;;;;5001394;28;20275;-76
2022/02/14 00:37:04;;;;;;;3.20;1.92;;;10.10;99.90;;;;;;5001046;28;20597;-76
2022/02/14 00:39:30;;;;;;;3.55;2.00;;;10.10;99.90;;;;;;5001299;28;20871;-77
2022/02/14 00:41:57;;;;;;;5.05;2.25;;;10.10;99.90;;;;;;5000671;28;20259;-76
2022/02/14 00:44:23;;;;;;;3.43;1.90;;;10.00;99.90;;;;;;5001047;28;20187;-76
2022/02/14 00:46:50;;;;;;;3.25;2.20;;;10.10;99.90;;;;;;5000456;28;21173;-76
2022/02/14 00:49:16;;;;;;;5.37;2.47;;;10.00;99.90;;;;;;4991708;28;20178;-77
2022/02/14 00:51:42;;;;;;;4.73;2.10;;;10.00;99.90;;;;;;5002396;28;20261;-77
2022/02/14 00:54:08;;;;;;;4.38;1.80;;;10.10;99.90;;;;;;5004724;28;20182;-77
2022/02/14 00:56:34;;;;;;;4.90;1.83;;;10.00;99.90;;;;;;4986513;28;20265;-77
2022/02/14 00:59:00;;;;;;;3.13;1.60;;;10.00;99.90;;;;;;5004939;28;20665;-77
2022/02/14 01:01:28;;;;;;;3.40;1.73;;;10.00;99.90;;;;;;4985755;28;20206;-77
2022/02/14 01:03:55;;;;;;;5.65;1.95;;;10.00;99.90;;;;;;5004430;28;20669;-77
2022/02/14 01:06:20;;;;;;;3.60;1.93;;;10.10;99.90;;;;;;4986469;28;20183;-76
2022/02/14 01:08:46;;;;;;;2.50;1.47;;;10.10;99.90;;;;;;4972683;28;20589;-77
2022/02/14 01:11:13;;;;;;;7.03;2.70;;;10.10;99.90;;;;;;5005083;28;20170;-77
2022/02/14 01:13:40;;;;;;;5.55;2.10;;;10.10;99.90;;;;;;5007151;28;20186;-77
2022/02/14 01:16:06;;;;;;;3.65;2.00;;;10.20;99.90;;;;;;4987528;28;20694;-77
2022/02/14 01:18:32;;;;;;;4.03;1.80;;;10.20;99.90;;;;;;5005990;28;20205;-77
2022/02/14 01:20:57;;;;;;;3.63;1.97;;;10.20;99.90;;;;;;4996524;28;20206;-76
2022/02/14 01:23:23;;;;;;;2.90;1.80;;;10.20;99.90;;;;;;4997915;28;20643;-76
2022/02/14 01:26:01;;;;;;;4.00;2.20;;;10.20;99.90;;;;;;4977741;28;20187;-77
2022/02/14 01:28:26;;;;;;;5.20;1.90;;;10.20;99.90;;;;;;4985797;28;20333;-77
2022/02/14 01:30:52;;;;;;;5.17;2.07;;;10.20;99.90;;;;;;5005399;28;20316;-77
2022/02/14 01:33:18;;;;;;;6.10;1.97;;;10.20;99.90;;;;;;5002031;28;20206;-77
2022/02/14 01:35:46;;;;;;;3.80;2.03;;;10.20;99.90;;;;;;5005490;28;20174;-77
2022/02/14 01:38:12;;;;;;;3.80;2.55;;;10.20;99.90;;;;;;5007089;28;20604;-77
2022/02/14 01:40:38;;;;;;;3.00;1.77;;;10.30;99.90;;;;;;4969009;28;20248;-76
2022/02/14 01:43:04;;;;;;;3.80;1.93;;;10.30;99.90;;;;;;4994826;28;20624;-77
2022/02/14 01:45:29;;;;;;;4.60;1.60;;;10.30;99.90;;;;;;5003235;28;21025;-76
2022/02/14 01:47:55;;;;;;;5.40;1.60;;;10.40;99.90;;;;;;4986253;28;20575;-77
2022/02/14 01:50:21;;;;;;;4.80;1.63;;;10.40;99.90;;;;;;4993626;28;20182;-76
2022/02/14 01:52:47;;;;;;;2.13;1.23;;;10.40;99.90;;;;;;5003452;28;20176;-77
2022/02/14 01:55:14;;;;;;;2.97;1.50;;;10.50;99.90;;;;;;4999639;28;20591;-78
2022/02/14 01:57:41;;;;;;;4.07;2.42;;;10.50;99.90;;;;;;5007319;28;20537;-77
2022/02/14 02:00:11;;;;;;;3.63;1.75;;;10.50;99.90;;;;;;4998510;28;20187;-76
2022/02/14 02:02:40;;;;;;;3.83;1.75;;;10.60;99.90;;;;;;5010107;28;20197;-77
2022/02/14 02:05:07;;;;;;;5.50;2.00;;;10.60;99.90;;;;;;4991515;28;20701;-76
2022/02/14 02:07:33;;;;;;;5.40;1.83;;;10.60;99.90;;;;;;5002868;28;20602;-76
2022/02/14 02:09:59;;;;;;;3.17;1.70;;;10.60;99.90;;;;;;5017771;28;20180;-77
2022/02/14 02:12:25;;;;;;;4.23;1.77;;;10.60;99.90;;;;;;5000551;28;20557;-76
2022/02/14 02:14:57;;;;;;;4.63;1.63;;;10.60;99.90;;;;;;5003672;28;20929;-76
2022/02/14 02:17:33;;;;;;;5.55;1.75;;;10.60;99.90;;;;;;5001459;28;20199;-76
2022/02/14 02:20:00;;;;;;;5.45;2.50;;;10.60;99.90;;;;;;5001203;28;20185;-75
2022/02/14 02:22:26;;;;;;;3.13;1.67;;;10.60;99.90;;;;;;5003936;28;20198;-76
2022/02/14 02:24:54;;;;;;;3.80;1.87;;;10.60;99.90;;;;;;5001418;28;20182;-76
2022/02/14 02:27:21;;;;;;;7.45;1.75;;;10.60;99.90;;;;;;5003392;28;20202;-76
2022/02/14 02:29:49;;;;;;;5.88;1.48;;;10.60;99.90;;;;;;4992306;28;20178;-76
2022/02/14 02:32:15;;;;;;;3.63;2.10;;;10.60;99.90;;;;;;4986292;28;20617;-75
2022/02/14 02:34:43;;;;;;;4.03;1.98;;;10.50;99.90;;;;;;5000723;28;20190;-76
2022/02/14 02:37:14;;;;;;;5.00;1.85;;;10.60;99.90;;;;;;5004478;28;20194;-76
2022/02/14 02:39:41;;;;;;;4.80;1.58;;;10.50;99.90;;;;;;4966760;28;20241;-75
2022/02/14 02:42:09;;;;;;;3.50;1.80;;;10.50;99.90;;;;;;5002457;28;20201;-75
2022/02/14 02:44:37;;;;;;;3.72;1.90;;;10.50;99.90;;;;;;5002282;28;20187;-76
2022/02/14 02:47:06;;;;;;;3.55;1.35;;;10.50;99.90;;;;;;5002229;28;20201;-76
2022/02/14 02:49:32;;;;;;;3.85;1.70;;;10.60;99.90;;;;;;4985316;28;20179;-76
2022/02/14 02:51:58;;;;;;;3.50;1.85;;;10.50;99.90;;;;;;5002744;28;20186;-76
2022/02/14 02:54:25;;;;;;;4.70;1.45;;;10.60;99.90;;;;;;5002065;28;20170;-76
2022/02/14 02:56:53;;;;;;;4.45;1.90;;;10.60;99.90;;;;;;4985462;28;20294;-76
2022/02/14 02:59:20;;;;;;;5.38;2.35;;;10.60;99.90;;;;;;5001587;28;20224;-75
2022/02/14 03:01:46;;;;;;;3.78;1.50;;;10.60;99.90;;;;;;5002509;28;20726;-76
2022/02/14 03:04:14;;;;;;;4.30;1.23;;;10.70;99.90;;;;;;5001548;28;20269;-76
2022/02/14 03:06:41;;;;;;;4.40;2.10;;;10.70;99.90;;;;;;5003125;28;20206;-76
2022/02/14 03:09:07;;;;;;;6.47;1.42;;;10.80;99.90;;;;;;4999945;28;20535;-76
2022/02/14 03:11:33;;;;;;;3.30;1.48;;;10.80;99.90;;;;;;4983784;28;20197;-76
2022/02/14 03:13:59;;;;;;;3.60;1.23;;;10.90;99.90;;;;;;4988581;28;20262;-77
2022/02/14 03:16:25;;;;;;;3.17;1.50;;;10.90;99.90;;;;;;4990006;28;20217;-76
2022/02/14 03:18:51;;;;;;;6.73;2.80;;;10.90;99.90;;;;;;4997709;28;20187;-76
2022/02/14 03:21:19;;;;;;;4.70;1.10;;;10.80;99.90;;;;;;5001997;28;20658;-76
2022/02/14 03:23:46;;;;;;;5.93;1.92;;;10.90;99.90;;;;;;5001248;28;21170;-76
2022/02/14 03:26:12;;;;;;;3.33;1.50;;;10.90;99.90;;;;;;5002688;28;20179;-76
2022/02/14 03:28:37;;;;;;;2.70;1.63;;;10.90;99.90;;;;;;5001397;28;20543;-76
2022/02/14 03:31:04;;;;;;;3.90;1.37;;;10.90;99.90;;;;;;5002013;28;20186;-76
2022/02/14 03:33:29;;;;;;;2.42;1.30;;;11.00;99.90;;;;;;5001262;28;20178;-75
2022/02/14 03:35:55;;;;;;;6.73;1.70;;;11.00;99.90;;;;;;5002043;28;20541;-76
2022/02/14 03:38:21;;;;;;;2.97;1.60;;;11.00;99.90;;;;;;5001512;28;20690;-75
2022/02/14 03:40:47;;;;;;;3.70;1.63;;;11.10;99.90;;;;;;4983881;28;20209;-75
2022/02/14 03:43:13;;;;;;;3.50;1.67;;;11.10;99.90;;;;;;5001711;28;20576;-76
2022/02/14 03:45:41;;;;;;;5.25;1.40;;;11.10;99.90;;;;;;4992429;28;20598;-77
2022/02/14 03:48:08;;;;;;;3.03;1.50;;;11.10;99.90;;;;;;4983940;28;20566;-76
2022/02/14 03:50:33;;;;;;;2.45;1.50;;;11.10;99.90;;;;;;5003095;28;20206;-76
2022/02/14 03:52:59;;;;;;;4.83;2.20;;;11.10;99.90;;;;;;5003222;28;20182;-76
2022/02/14 03:55:25;;;;;;;2.47;1.33;;;11.10;99.90;;;;;;4992462;28;20214;-76
2022/02/14 03:57:51;;;;;;;2.28;1.45;;;11.10;99.90;;;;;;5001609;28;20205;-76
2022/02/14 04:00:19;;;;;;;5.53;1.57;;;11.10;99.90;;;;;;4967207;28;20175;-76
2022/02/14 04:02:45;;;;;;;3.00;1.70;;;11.10;99.90;;;;;;5001367;28;20612;-77
2022/02/14 04:05:12;;;;;;;4.50;2.20;;;11.00;99.90;;;;;;5001221;28;20253;-76
2022/02/14 04:07:38;;;;;;;2.85;1.30;;;11.00;99.90;;;;;;4983884;28;20961;-76
2022/02/14 04:10:05;;;;;;;4.27;1.60;;;11.00;99.90;;;;;;4983297;28;20187;-77
2022/02/14 04:12:31;;;;;;;4.55;1.65;;;11.00;99.90;;;;;;5001481;28;20521;-76
2022/02/14 04:14:57;;;;;;;3.50;1.60;;;11.00;99.90;;;;;;5001366;28;20254;-76
2022/02/14 04:17:24;;;;;;;1.70;1.30;;;11.00;99.90;;;;;;5001476;28;21217;-77
2022/02/14 04:19:50;;;;;;;2.97;1.00;;;11.00;99.90;;;;;;4989845;28;20566;-76
2022/02/14 04:22:15;;;;;;;2.23;1.20;;;11.00;99.90;;;;;;5000906;28;20269;-76
2022/02/14 04:24:41;;;;;;;3.33;1.27;;;11.00;99.90;;;;;;5001754;28;20175;-76
2022/02/14 04:27:07;;;;;;;3.40;1.23;;;11.00;99.90;;;;;;4977933;28;20207;-77
2022/02/14 04:29:33;;;;;;;5.70;1.30;;;11.00;99.90;;;;;;5007959;28;20215;-77
2022/02/14 04:31:58;;;;;;;2.60;0.90;;;11.00;99.90;;;;;;4996056;28;20270;-77
2022/02/14 04:34:24;;;;;;;2.23;1.10;;;10.90;99.90;;;;;;5003959;28;20183;-77
2022/02/14 04:36:50;;;;;;;1.97;1.00;;;10.90;99.90;;;;;;5005926;28;20194;-77
2022/02/14 04:39:17;;;;;;;2.70;1.50;;;10.90;99.90;;;;;;4994406;28;20371;-76
2022/02/14 04:41:43;;;;;;;3.60;1.30;;;11.00;99.90;;;;;;5006186;28;20668;-77
2022/02/14 04:44:10;;;;;;;2.78;1.45;;;11.00;99.90;;;;;;5005883;28;20167;-77
2022/02/14 04:46:36;;;;;;;4.60;1.05;;;11.00;99.90;;;;;;5003477;28;20206;-76
2022/02/14 04:49:03;;;;;;;3.37;1.43;;;11.00;99.90;;;;;;5005749;28;20179;-76
2022/02/14 04:51:29;;;;;;;3.05;1.10;;;11.00;99.90;;;;;;4994141;28;20174;-76
2022/02/14 04:53:54;;;;;;;3.57;1.30;;;11.00;99.90;;;;;;5005872;28;20182;-77
2022/02/14 04:56:20;;;;;;;3.97;1.17;;;11.00;99.90;;;;;;5003321;28;20183;-76
2022/02/14 04:58:46;;;;;;;3.72;1.60;;;10.90;99.90;;;;;;4988565;28;20213;-76
2022/02/14 05:01:13;;;;;;;2.33;1.10;;;11.00;99.90;;;;;;5001342;28;20203;-76
2022/02/14 05:03:40;;;;;;;4.22;1.05;;;11.00;99.90;;;;;;5005867;28;20174;-77
2022/02/14 05:06:05;;;;;;;2.75;0.98;;;10.90;99.90;;;;;;5009650;28;20174;-76
2022/02/14 05:08:32;;;;;;;3.20;1.47;;;11.00;99.90;;;;;;5002849;28;20544;-76
2022/02/14 05:10:57;;;;;;;3.92;1.20;;;11.00;99.90;;;;;;4988133;28;20189;-76
2022/02/14 05:13:23;;;;;;;3.40;1.10;;;11.00;99.90;;;;;;5001274;28;20183;-77
2022/02/14 05:15:50;;;;;;;3.15;1.15;;;11.10;99.90;;;;;;5004806;28;20186;-77
2022/02/14 05:18:16;;;;;;;2.47;1.00;;;11.10;99.90;;;;;;4984185;28;20623;-76
2022/02/14 05:20:41;;;;;;;4.07;1.15;;;11.10;99.90;;;;;;4984043;28;20256;-76
2022/02/14 05:23:07;;;;;;;1.77;1.00;;;11.20;99.90;;;;;;5006426;28;20265;-76
2022/02/14 05:25:33;;;;;;;3.27;1.50;;;11.20;99.90;;;;;;5002641;28;20195;-77
2022/02/14 05:27:59;;;;;;;2.23;1.30;;;11.20;99.90;;;;;;5005937;28;20202;-77
2022/02/14 05:30:25;;;;;;;3.50;1.93;;;11.20;99.90;;;;;;5005486;28;20934;-76
2022/02/14 05:32:51;;;;;;;2.85;1.35;;;11.20;99.90;;;;;;5002285;28;20669;-76
2022/02/14 05:35:17;;;;;;;6.87;1.10;;;11.20;99.90;;;;;;4996182;28;20257;-76
2022/02/14 05:37:43;;;;;;;2.20;1.20;;;11.30;99.90;;;;;;4964771;28;20211;-76
2022/02/14 05:40:09;;;;;;;3.80;1.37;;;11.30;99.90;;;;;;5005098;28;21127;-77
2022/02/14 05:42:34;;;;;;;4.00;1.90;;;11.30;99.90;;;;;;4988057;28;20206;-78
2022/02/14 05:45:00;;;;;;;3.00;1.53;;;11.30;99.90;;;;;;5001987;28;20609;-76
2022/02/14 05:47:26;;;;;;;2.90;1.50;;;11.30;99.90;;;;;;5004387;28;20277;-76
2022/02/14 05:49:52;;;;;;;2.83;0.90;;;11.30;99.90;;;;;;4992817;28;20324;-78
2022/02/14 05:52:18;;;;;;;4.73;1.20;;;11.30;99.90;;;;;;5004403;28;20596;-79
2022/02/14 05:54:44;;;;;;;2.13;1.13;;;11.30;99.90;;;;;;4985377;28;20184;-76
2022/02/14 05:57:12;;;;;;;2.03;1.20;;;11.30;99.90;;;;;;5004002;28;20940;-77
2022/02/14 05:59:38;;;;;;;3.88;1.00;;;11.40;99.90;;;;;;5002187;28;20179;-77
2022/02/14 06:02:04;;;;;;;3.40;1.10;;;11.40;99.90;;;;;;5003802;28;20333;-76
2022/02/14 06:04:30;;;;;;;3.97;1.47;;;11.40;99.90;;;;;;5002428;28;20185;-77
2022/02/14 06:06:55;;;;;;;5.17;1.13;;;11.50;99.90;;;;;;5003682;28;20602;-77
2022/02/14 06:09:22;;;;;;;1.83;0.90;;;11.50;99.90;;;;;;5002476;28;20578;-77
2022/02/14 06:11:48;;;;;;;2.63;0.90;;;11.60;99.90;;;;;;4985530;28;20218;-76
2022/02/14 06:14:14;;;;;;;3.28;0.95;;;11.60;99.90;;;;;;5002597;28;20181;-76
2022/02/14 06:16:40;;;;;;;4.00;0.85;;;11.70;99.90;;;;;;4987385;28;20198;-77
2022/02/14 06:19:05;;;;;;;2.47;0.90;;;11.70;99.90;;;;;;5004183;28;20205;-76
2022/02/14 06:21:31;;;;;;;2.07;1.27;;;11.70;99.90;;;;;;5002890;28;20195;-76
2022/02/14 06:23:57;;;;;;;2.10;0.90;;;11.70;99.90;;;;;;5002819;28;20170;-76
2022/02/14 06:26:23;;;;;;;1.90;0.90;;;11.70;99.90;;;;;;5002583;28;20586;-76
2022/02/14 06:28:49;;;;;;;2.03;1.00;;;11.70;99.90;;;;;;5004735;28;20229;-77
2022/02/14 06:31:15;;;;;;;1.83;0.77;;;11.70;99.90;;;;;;5002858;28;21064;-76
2022/02/14 06:33:42;;;;;;;1.60;0.80;;;11.80;99.90;;;;;;5002284;28;20197;-77
2022/02/14 06:36:07;;;;;;;1.55;0.82;;;11.80;99.90;;;;;;5003550;28;20174;-76
2022/02/14 06:38:34;;;;;;;2.97;0.97;;;11.80;99.90;;;;;;5005322;28;20248;-76
2022/02/14 06:41:01;;;;;;;2.03;0.88;;;11.80;99.90;;;;;;4993695;28;20206;-76
2022/02/14 06:43:27;;;;;;;3.08;0.80;;;11.80;99.90;;;;;;5006776;28;20178;-77
2022/02/14 06:45:53;;;;;;;1.88;1.00;;;11.80;99.90;;;;;;5004681;28;20727;-76
2022/02/14 06:48:18;;;;;;;2.53;0.70;;;11.80;99.90;;;;;;4999492;28;20183;-76
2022/02/14 06:50:44;;;;;;;2.70;1.10;;;11.80;99.90;;;;;;5007890;28;20608;-76
2022/02/14 06:53:10;;;;;;;2.53;0.80;;;11.90;99.90;;;;;;5004255;28;20211;-76
2022/02/14 06:55:36;;;;;;;2.00;0.90;;;11.90;99.90;;;;;;5009607;28;20194;-77
2022/02/14 06:58:03;;;;;;;1.63;0.95;;;11.90;99.90;;;;;;5006860;28;20264;-77
2022/02/14 07:00:29;;;;;;;2.50;0.90;;;12.00;99.90;;;;;;5002478;28;20615;-76
2022/02/14 07:02:55;;;;;;;2.33;1.00;;;12.00;99.90;;;;;;5000920;28;20186;-75
2022/02/14 07:05:22;;;;;;;2.20;0.82;;;12.00;99.90;;;;;;5006848;28;21121;-77
2022/02/14 07:07:49;;;;;;;2.35;0.85;;;12.00;99.90;;;;;;5011808;28;20210;-76
2022/02/14 07:10:15;;;;;;;3.08;0.75;;;12.00;99.90;;;;;;5006607;28;20563;-76
2022/02/14 07:12:44;;;;;;;2.58;0.85;;;12.10;99.90;;;;;;4989039;28;20187;-74
2022/02/14 07:15:11;;;;;;;2.45;0.80;;;12.10;99.90;;;;;;5004785;28;20191;-76
2022/02/14 07:17:37;;;;;;;1.92;0.80;;;12.10;99.90;;;;;;5003457;28;20195;-77
2022/02/14 07:20:04;;;;;;;1.75;0.70;;;12.20;99.90;;;;;;5001836;28;20178;-77
2022/02/14 07:22:29;;;;;;;2.53;1.00;;;12.30;99.90;;;;;;4985795;28;20214;-77
2022/02/14 07:24:55;;;;;;;2.03;1.13;;;12.30;99.90;;;;;;5002234;28;20185;-77
2022/02/14 07:27:21;;;;;;;1.67;1.00;;;12.30;99.90;;;;;;5007197;28;20605;-77
2022/02/14 07:29:47;;;;;;;2.43;1.00;;;12.40;99.90;;;;;;5003120;28;20205;-75
2022/02/14 07:32:12;;;;;;;4.07;1.37;;;12.40;99.90;;;;;;5013520;28;20189;-76
2022/02/14 07:34:38;;;;;;;9.43;1.00;;;12.50;99.90;;;;;;4990256;28;20229;-76
2022/02/14 07:37:04;;;;;;;2.33;0.90;;;12.50;99.90;;;;;;4992316;28;20202;-76
2022/02/14 07:39:31;;;;;;;1.60;0.80;;;12.60;99.90;;;;;;5011691;28;20226;-76
2022/02/14 07:42:00;;;;;;;1.92;0.80;;;12.60;99.90;;;;;;5005140;28;20213;-76
2022/02/14 07:44:27;;;;;;;1.50;0.90;;;12.70;99.90;;;;;;4995949;28;20516;-77
2022/02/14 07:46:57;;;;;;;2.15;0.80;;;12.70;99.90;;;;;;4988448;28;20581;-76
2022/02/14 07:49:23;;;;;;;3.88;0.90;;;12.80;99.90;;;;;;5010765;28;20252;-76
2022/02/14 07:51:50;;;;;;;1.58;0.80;;;12.90;99.90;;;;;;5002821;28;20174;-76
2022/02/14 07:54:16;;;;;;;3.63;1.33;;;12.90;99.90;;;;;;4985748;28;20181;-78
2022/02/14 07:56:42;;;;;;;2.30;0.90;;;12.90;99.90;;;;;;5006977;28;20643;-79
2022/02/14 07:59:08;;;;;;;2.67;0.90;;;13.00;99.90;;;;;;5002741;28;20723;-76
2022/02/14 08:01:34;;;;;;;3.67;1.05;;;13.00;99.90;;;;;;4994136;28;20214;-76
2022/02/14 08:04:00;;;;;;;3.35;1.00;;;13.00;99.90;;;;;;5006842;28;20179;-77
2022/02/14 08:06:26;;;;;;;1.95;0.90;;;13.10;99.90;;;;;;5006799;28;20232;-77
2022/02/14 08:08:52;;;;;;;1.80;1.00;;;13.10;99.90;;;;;;4995090;28;20178;-78
2022/02/14 08:11:21;;;;;;;1.73;0.80;;;13.20;99.90;;;;;;4994918;28;20202;-79
2022/02/14 08:13:47;;;;;;;1.85;0.90;;;13.30;99.90;;;;;;4996003;28;20585;-79
2022/02/14 08:16:13;;;;;;;2.90;1.50;;;13.40;99.90;;;;;;4986316;28;20245;-79
2022/02/14 08:18:38;;;;;;;2.13;1.10;;;13.50;99.90;;;;;;4976555;28;20593;-76
2022/02/14 08:21:05;;;;;;;2.37;0.97;;;13.50;99.90;;;;;;4992827;28;20202;-76
2022/02/14 08:23:31;;;;;;;2.03;0.73;;;13.70;99.90;;;;;;4994586;28;20253;-76
2022/02/14 08:25:57;;;;;;;2.10;0.70;;;13.90;99.90;;;;;;5014306;28;20980;-76
2022/02/14 08:28:23;;;;;;;2.50;0.80;;;14.00;99.90;;;;;;5008901;28;20988;-76
2022/02/14 08:30:50;;;;;;;1.57;0.80;;;14.20;99.90;;;;;;5005145;28;20573;-77
2022/02/14 08:33:17;;;;;;;3.10;0.83;;;14.30;99.90;;;;;;5003390;28;20673;-77
2022/02/14 08:35:43;;;;;;;1.93;0.87;;;14.40;99.90;;;;;;5006055;28;20578;-77
2022/02/14 08:38:10;;;;;;;3.30;1.00;;;14.60;99.90;;;;;;5005643;28;20635;-75
2022/02/14 08:40:37;;;;;;;4.47;1.75;;;14.60;99.90;;;;;;4985240;28;20592;-76
2022/02/14 08:43:04;;;;;;;1.80;0.90;;;14.70;99.90;;;;;;5005424;28;20269;-77
2022/02/14 08:45:31;;;;;;;1.80;1.00;;;14.70;99.90;;;;;;4993683;28;20608;-77
2022/02/14 08:47:57;;;;;;;3.03;0.90;;;14.80;99.90;;;;;;5008810;28;20604;-76
2022/02/14 08:50:23;;;;;;;2.40;1.03;;;14.80;99.90;;;;;;5005060;28;21305;-76
2022/02/14 08:52:49;;;;;;;4.27;0.80;;;15.00;99.90;;;;;;5005992;28;20577;-77
2022/02/14 08:55:15;;;;;;;1.60;0.80;;;15.10;99.90;;;;;;5002612;28;20317;-76
2022/02/14 08:57:42;;;;;;;1.83;0.70;;;15.30;99.90;;;;;;5003950;28;20680;-76
2022/02/14 09:00:09;;;;;;;2.50;0.80;;;15.50;99.90;;;;;;5002280;28;20609;-76
2022/02/14 09:02:35;;;;;;;1.70;0.80;;;15.80;99.90;;;;;;5005076;28;20972;-77
2022/02/14 09:05:01;;;;;;;1.50;0.70;;;16.00;99.90;;;;;;5005917;28;21251;-76
2022/02/14 09:07:28;;;;;;;1.67;0.80;;;16.10;99.90;;;;;;5010349;28;20965;-76
2022/02/14 09:09:53;;;;;;;1.90;1.07;;;16.30;99.90;;;;;;4992057;28;20584;-76
2022/02/14 09:12:19;;;;;;;1.77;0.60;;;16.50;99.90;;;;;;4987333;28;20185;-76
2022/02/14 09:14:45;;;;;;;1.30;0.60;;;16.70;99.90;;;;;;4984655;28;20815;-76
2022/02/14 09:17:11;;;;;;;2.10;0.80;;;17.00;99.90;;;;;;4987511;28;21085;-76
2022/02/14 09:19:37;;;;;;;1.60;0.60;;;17.20;99.90;;;;;;5004700;28;20660;-78
2022/02/14 09:22:04;;;;;;;1.50;0.70;;;17.30;99.90;;;;;;5002020;28;20657;-77
2022/02/14 09:24:30;;;;;;;2.80;0.80;;;17.30;99.90;;;;;;4976086;28;20632;-78
2022/02/14 09:26:57;;;;;;;4.40;0.70;;;17.20;99.90;;;;;;5005943;28;20205;-77
2022/02/14 09:29:23;;;;;;;1.77;0.70;;;17.20;99.90;;;;;;5002025;28;20578;-79
2022/02/14 09:31:51;;;;;;;3.17;0.97;;;17.10;99.90;;;;;;5006809;28;20581;-77
2022/02/14 09:34:19;;;;;;;1.40;0.60;;;17.10;99.90;;;;;;5001143;28;20586;-77
2022/02/14 09:36:46;;;;;;;3.73;0.60;;;17.10;99.90;;;;;;4988876;28;20660;-77
2022/02/14 09:39:12;;;;;;;1.53;0.63;;;17.10;99.90;;;;;;5002030;28;20681;-77
2022/02/14 09:41:39;;;;;;;2.70;0.90;;;17.10;99.90;;;;;;4992526;28;20629;-77
2022/02/14 09:44:06;;;;;;;2.40;0.60;;;17.20;99.90;;;;;;5005050;28;20588;-77
2022/02/14 09:46:35;;;;;;;1.40;0.80;;;17.30;99.90;;;;;;5005038;28;21017;-77
2022/02/14 09:49:02;;;;;;;1.50;0.60;;;17.40;99.90;;;;;;5004274;28;20623;-77
2022/02/14 09:51:29;;;;;;;1.53;0.60;;;17.50;99.90;;;;;;5001910;28;20597;-76
2022/02/14 09:53:56;;;;;;;1.83;0.60;;;17.70;99.90;;;;;;5003648;28;20926;-76
2022/02/14 09:56:24;;;;;;;2.67;0.60;;;17.80;99.90;;;;;;5005279;28;20581;-75
2022/02/14 09:58:51;;;;;;;2.00;0.60;;;17.80;99.90;;;;;;4984412;28;21138;-77
2022/02/14 10:01:17;;;;;;;2.27;0.70;;;17.80;99.90;;;;;;5011786;28;20625;-77
2022/02/14 10:04:09;;;;;;;1.33;0.60;;;17.90;99.90;;;;;;5010503;28;20570;-78
2022/02/14 10:06:43;;;;;;;2.43;0.50;;;17.90;99.90;;;;;;4982327;28;20641;-78
2022/02/14 10:09:11;;;;;;;1.37;0.60;;;18.00;99.90;;;;;;5006059;28;20603;-78
2022/02/14 10:11:42;;;;;;;3.70;0.70;;;18.10;99.90;;;;;;4972831;28;21157;-76
2022/02/14 10:14:16;;;;;;;1.40;0.50;;;18.10;99.90;;;;;;5006773;28;20626;-76
2022/02/14 10:17:18;;;;;;;1.53;0.60;;;18.20;99.90;;;;;;5005651;28;20627;-76
2022/02/14 10:19:58;;;;;;;2.43;0.60;;;18.20;99.90;;;;;;4978466;28;20641;-76
2022/02/14 10:22:24;;;;;;;1.30;0.50;;;18.20;99.90;;;;;;5002771;28;20625;-75
2022/02/14 10:24:50;;;;;;;1.20;0.50;;;18.20;99.90;;;;;;5002421;28;20593;-76
2022/02/14 10:27:17;;;;;;;2.13;0.70;;;18.10;99.90;;;;;;5002441;28;20598;-76
2022/02/14 10:29:44;;;;;;;2.23;0.60;;;18.10;99.90;;;;;;5004173;28;20606;-77
2022/02/14 10:32:20;;;;;;;1.90;0.70;;;17.90;99.90;;;;;;4989577;28;20689;-78
2022/02/14 10:34:54;;;;;;;2.13;1.17;;;17.70;99.90;;;;;;5006739;28;20182;-78
2022/02/14 10:37:36;;;;;;;2.20;0.60;;;17.50;99.90;;;;;;5004567;28;20610;-78
2022/02/14 10:40:03;;;;;;;1.20;0.50;;;17.30;99.90;;;;;;4998078;28;20589;-77
2022/02/14 10:42:37;;;;;;;1.70;0.50;;;17.00;99.90;;;;;;4993178;28;20633;-78
2022/02/14 10:45:08;;;;;;;1.40;0.50;;;16.80;99.90;;;;;;4999026;28;20598;-77
2022/02/14 10:47:43;;;;;;;1.40;0.50;;;16.70;99.90;;;;;;4987045;28;20617;-77
2022/02/14 10:50:19;;;;;;;1.30;0.50;;;16.50;99.90;;;;;;5006687;28;20638;-77
2022/02/14 10:52:46;;;;;;;1.63;0.50;;;16.40;99.90;;;;;;4989028;28;20739;-78
2022/02/14 10:55:37;;;;;;;1.67;0.50;;;16.30;99.90;;;;;;4984983;28;21771;-77
2022/02/14 10:58:03;;;;;;;1.50;0.60;;;16.20;99.90;;;;;;5006549;28;20602;-77
2022/02/14 11:00:32;;;;;;;1.73;0.50;;;16.10;99.90;;;;;;4991398;28;20674;-77
2022/02/14 11:03:02;;;;;;;1.10;0.40;;;16.00;99.90;;;;;;4968615;28;20622;-77
2022/02/14 11:05:29;;;;;;;1.13;0.50;;;16.00;99.90;;;;;;5001242;28;20569;-77
2022/02/14 11:07:55;;;;;;;4.40;0.60;;;16.10;99.90;;;;;;5003890;28;21287;-77
2022/02/14 11:10:22;;;;;;;1.40;0.60;;;16.20;99.90;;;;;;5005933;28;20825;-78
2022/02/14 11:12:47;;;;;;;1.20;0.50;;;16.30;99.90;;;;;;5004136;28;20595;-78
2022/02/14 11:15:14;;;;;;;1.67;0.70;;;16.50;99.90;;;;;;5006615;28;20624;-77
2022/02/14 11:17:54;;;;;;;1.50;0.63;;;16.60;99.90;;;;;;5004943;28;20675;-77
2022/02/14 11:20:20;;;;;;;1.97;0.60;;;16.60;99.90;;;;;;5003671;28;20596;-78
2022/02/14 11:22:49;;;;;;;2.73;0.50;;;16.60;99.90;;;;;;5013906;28;20629;-77
2022/02/14 11:25:38;;;;;;;1.23;0.50;;;16.50;99.90;;;;;;5005857;28;20628;-77
2022/02/14 11:28:26;;;;;;;1.30;0.47;;;16.40;99.90;;;;;;4971930;28;20704;-77
2022/02/14 11:31:17;;;;;;;1.40;0.50;;;16.40;99.90;;;;;;5002084;28;20598;-77
2022/02/14 11:33:55;;;;;;;1.33;0.40;;;16.30;99.90;;;;;;5001865;28;20677;-76
2022/02/14 11:36:23;;;;;;;1.20;0.50;;;16.30;99.90;;;;;;5002591;28;20616;-75
2022/02/14 11:38:54;;;;;;;2.37;0.60;;;16.50;99.90;;;;;;4991436;28;20660;-76
2022/02/14 11:41:34;;;;;;;1.80;0.50;;;16.50;99.90;;;;;;5004315;28;20683;-76
2022/02/14 11:44:27;;;;;;;4.70;0.60;;;16.50;99.90;;;;;;4983386;28;20681;-76
2022/02/14 11:46:55;;;;;;;1.57;0.50;;;16.40;99.90;;;;;;5006270;28;20640;-76
2022/02/14 11:49:33;;;;;;;1.40;0.87;;;16.40;99.90;;;;;;5004451;28;20585;-76
2022/02/14 11:51:59;;;;;;;2.37;0.70;;;16.30;99.90;;;;;;5001022;28;20603;-76
2022/02/14 11:54:46;;;;;;;1.63;0.60;;;16.30;99.90;;;;;;5003429;28;20611;-75
2022/02/14 11:57:31;;;;;;;1.70;0.50;;;16.20;99.90;;;;;;4999632;28;20609;-76
2022/02/14 12:00:12;;;;;;;1.40;0.60;;;16.20;99.90;;;;;;4987958;28;20582;-76
2022/02/14 12:02:39;;;;;;;2.80;0.50;;;16.10;99.90;;;;;;4982940;28;20995;-76
2022/02/14 12:05:06;;;;;;;3.60;0.80;;;16.10;99.90;;;;;;5002555;28;20566;-76
2022/02/14 12:07:39;;;;;;;1.50;0.63;;;16.10;99.90;;;;;;5000428;28;20673;-76
2022/02/14 12:10:15;;;;;;;1.87;0.90;;;16.10;99.90;;;;;;5002897;28;21332;-76
2022/02/14 12:12:59;;;;;;;2.37;0.70;;;16.10;99.90;;;;;;5000708;28;20609;-75
2022/02/14 12:20:50;;;;;;;1.93;0.50;;;16.10;99.90;;;;;;5001753;28;20651;-76
2022/02/14 12:23:33;;;;;;;1.70;0.60;;;16.20;99.90;;;;;;5002884;28;20577;-76
2022/02/14 12:26:00;;;;;;;1.47;0.50;;;16.20;99.90;;;;;;5001543;28;20578;-78
2022/02/14 12:28:27;;;;;;;1.40;0.60;;;16.30;99.90;;;;;;4992951;28;21299;-76
2022/02/14 12:30:56;;;;;;;2.00;0.50;;;16.40;99.90;;;;;;5002433;28;20581;-76
2022/02/14 12:33:22;;;;;;;2.53;0.77;;;16.40;99.90;;;;;;4983840;28;20601;-76
2022/02/14 12:35:56;;;;;;;1.73;0.53;;;16.50;99.90;;;;;;5000557;28;20952;-76
2022/02/14 12:38:34;;;;;;;4.07;0.70;;;16.40;99.90;;;;;;5002551;28;20596;-77
2022/02/14 12:41:01;;;;;;;1.20;0.50;;;16.30;99.90;;;;;;4999677;28;20985;-76
2022/02/14 12:43:28;;;;;;;2.40;0.50;;;16.20;99.90;;;;;;5001988;28;20613;-76
2022/02/14 12:45:56;;;;;;;1.30;0.60;;;16.10;99.60;;;;;;5000229;28;21006;-75
2022/02/14 12:48:52;;;;;;;2.43;0.83;;;16.00;99.90;;;;;;5005780;28;20688;-75
2022/02/14 12:51:25;;;;;;;2.77;0.80;;;16.00;99.80;;;;;;5006825;28;20642;-78
2022/02/14 12:53:57;;;;;;;1.30;0.50;;;16.00;99.90;;;;;;5008082;28;20581;-78
2022/02/14 12:56:31;;;;;;;1.33;0.57;;;15.90;99.90;;;;;;5007258;28;21529;-74